Time;durP1;ratioP1;P1;durP2;ratioP2;P2;SDS_P1;SDS_P2;PMS_P1;PMS_P2;Temp;Humidity;BMP_temperature;BMP_pressure;BME280_temperature;BME280_humidity;BME280_pressure;Samples;Min_cycle;Max_cycle;Signal;HPM_P1;HPM_P2
2022/05/05 00:02:07;;;;;;;0.00;0.00;;;16.40;58.30;;;;;;4205258;28;20115;-65
2022/05/05 00:04:32;;;;;;;0.00;0.00;;;16.40;58.40;;;;;;4194745;28;20067;-68
2022/05/05 00:06:57;;;;;;;0.00;0.00;;;16.30;58.30;;;;;;4208219;28;20044;-64
2022/05/05 00:09:22;;;;;;;0.40;0.40;;;16.40;58.40;;;;;;4204571;28;20076;-65
2022/05/05 00:14:34;;;;;;;0.03;0.03;;;16.40;58.50;;;;;;4207466;28;20051;-66
2022/05/05 00:17:06;;;;;;;0.00;0.00;;;16.40;58.50;;;;;;4198846;28;20043;-66
2022/05/05 00:19:38;;;;;;;0.00;0.00;;;16.40;58.70;;;;;;4179890;28;20048;-65
2022/05/05 00:22:09;;;;;;;0.00;0.00;;;16.30;58.60;;;;;;4198985;28;20100;-66
2022/05/05 00:24:39;;;;;;;0.00;0.00;;;16.30;58.60;;;;;;4183937;28;20051;-66
2022/05/05 00:27:03;;;;;;;0.00;0.00;;;16.30;58.60;;;;;;4186069;28;20048;-66
2022/05/05 00:29:30;;;;;;;0.00;0.00;;;16.30;58.60;;;;;;4168435;28;20068;-66
2022/05/05 00:31:56;;;;;;;0.00;0.00;;;16.30;58.60;;;;;;4185708;28;20072;-65
2022/05/05 00:34:24;;;;;;;0.00;0.00;;;16.30;58.60;;;;;;4190815;28;20814;-66
2022/05/05 00:36:48;;;;;;;0.00;0.00;;;16.30;58.70;;;;;;4181064;28;20438;-66
2022/05/05 00:39:17;;;;;;;0.00;0.00;;;16.30;58.70;;;;;;4196054;28;20054;-66
2022/05/05 00:41:50;;;;;;;;;;;16.30;58.70;;;;;;4207897;28;20131;-66
2022/05/05 00:44:15;;;;;;;0.10;0.10;;;16.30;58.70;;;;;;4191153;28;19955;-66
2022/05/05 00:46:42;;;;;;;0.25;0.25;;;16.20;58.70;;;;;;4204828;28;20564;-67
2022/05/05 00:49:11;;;;;;;0.08;0.08;;;16.20;58.80;;;;;;4197897;28;20560;-66
2022/05/05 00:51:38;;;;;;;0.00;0.00;;;16.20;58.80;;;;;;4203878;28;20051;-66
2022/05/05 00:54:02;;;;;;;0.00;0.00;;;16.20;58.80;;;;;;4210274;28;20051;-66
2022/05/05 00:56:30;;;;;;;0.00;0.00;;;16.20;58.90;;;;;;4186259;28;20059;-66
2022/05/05 00:58:59;;;;;;;0.00;0.00;;;16.10;58.80;;;;;;4206135;28;20072;-65
2022/05/05 01:01:29;;;;;;;0.10;0.10;;;16.20;58.90;;;;;;4203713;28;20058;-66
2022/05/05 01:03:57;;;;;;;0.00;0.00;;;16.20;58.90;;;;;;4195821;28;20040;-65
2022/05/05 01:06:21;;;;;;;0.28;0.28;;;16.20;59.00;;;;;;4195012;28;20048;-64
2022/05/05 01:08:46;;;;;;;0.00;0.00;;;16.20;59.00;;;;;;4196951;28;20101;-65
2022/05/05 01:11:11;;;;;;;0.00;0.00;;;16.10;59.00;;;;;;4209521;28;20075;-66
2022/05/05 01:13:39;;;;;;;0.00;0.00;;;16.10;59.10;;;;;;4201764;28;20476;-65
2022/05/05 01:16:13;;;;;;;0.00;0.00;;;16.10;59.10;;;;;;4194423;28;20127;-65
2022/05/05 01:18:38;;;;;;;0.30;0.30;;;16.10;59.20;;;;;;4202147;28;20056;-65
2022/05/05 01:21:09;;;;;;;0.55;0.55;;;16.10;59.20;;;;;;4199181;28;20384;-64
2022/05/05 01:23:36;;;;;;;0.00;0.00;;;16.10;59.20;;;;;;4196103;28;20043;-64
2022/05/05 01:28:45;;;;;;;0.20;0.20;;;16.10;59.20;;;;;;4205586;28;20486;-65
2022/05/05 01:31:11;;;;;;;0.45;0.45;;;16.10;59.30;;;;;;4192406;28;20479;-65
2022/05/05 01:33:35;;;;;;;0.32;0.32;;;16.10;59.30;;;;;;4177414;28;20091;-65
2022/05/05 01:36:00;;;;;;;0.00;0.00;;;16.10;59.30;;;;;;4197122;28;20127;-65
2022/05/05 01:38:28;;;;;;;0.00;0.00;;;16.10;59.40;;;;;;4195596;28;20047;-65
2022/05/05 01:40:54;;;;;;;0.40;0.40;;;16.10;59.40;;;;;;4199246;28;20119;-65
2022/05/05 01:43:21;;;;;;;0.00;0.00;;;16.10;59.50;;;;;;4204282;28;20043;-65
2022/05/05 01:45:49;;;;;;;0.00;0.00;;;16.00;59.40;;;;;;4196569;28;20055;-65
2022/05/05 01:48:18;;;;;;;0.00;0.00;;;16.00;59.50;;;;;;4210823;28;20414;-65
2022/05/05 01:50:44;;;;;;;0.00;0.00;;;16.00;59.50;;;;;;4184755;28;20738;-65
2022/05/05 01:53:13;;;;;;;0.00;0.00;;;16.00;59.50;;;;;;4178815;28;20044;-65
2022/05/05 01:55:43;;;;;;;0.00;0.00;;;16.00;59.60;;;;;;4193263;28;20145;-66
2022/05/05 01:58:11;;;;;;;0.00;0.00;;;16.00;59.50;;;;;;4202838;28;20036;-65
2022/05/05 02:00:40;;;;;;;0.00;0.00;;;16.00;59.50;;;;;;4188264;28;20109;-65
2022/05/05 02:03:12;;;;;;;0.00;0.00;;;16.00;59.60;;;;;;4201532;28;20101;-65
2022/05/05 02:05:37;;;;;;;;;;;16.00;59.50;;;;;;4181297;28;20095;-65
2022/05/05 02:08:06;;;;;;;0.00;0.00;;;16.00;59.50;;;;;;4192869;28;19920;-65
2022/05/05 02:10:31;;;;;;;0.00;0.00;;;16.00;59.50;;;;;;4190377;28;20097;-65
2022/05/05 02:12:58;;;;;;;0.00;0.00;;;16.00;59.60;;;;;;4205838;28;20055;-65
2022/05/05 02:15:24;;;;;;;0.00;0.00;;;15.90;59.60;;;;;;4195012;28;20118;-65
2022/05/05 02:17:54;;;;;;;0.28;0.28;;;16.00;59.70;;;;;;4186041;28;20047;-65
2022/05/05 02:20:26;;;;;;;0.00;0.00;;;15.90;59.70;;;;;;4187481;28;20047;-65
2022/05/05 02:22:56;;;;;;;0.65;0.55;;;16.00;59.70;;;;;;4175604;28;20128;-66
2022/05/05 02:25:37;;;;;;;0.30;0.30;;;15.90;59.70;;;;;;4195103;28;20052;-66
2022/05/05 02:28:03;;;;;;;0.00;0.00;;;15.90;59.80;;;;;;4209684;28;20066;-67
2022/05/05 02:30:31;;;;;;;0.00;0.00;;;15.90;59.80;;;;;;4177803;28;20055;-66
2022/05/05 02:33:01;;;;;;;0.03;0.03;;;15.90;59.80;;;;;;4197924;28;20126;-66
2022/05/05 02:35:28;;;;;;;0.00;0.00;;;15.90;59.80;;;;;;4201775;28;21536;-66
2022/05/05 02:40:40;;;;;;;0.47;0.40;;;15.90;59.80;;;;;;4200634;28;20047;-65
2022/05/05 02:43:08;;;;;;;0.00;0.00;;;15.90;59.90;;;;;;4198387;28;20055;-65
2022/05/05 02:45:36;;;;;;;0.00;0.00;;;15.90;59.90;;;;;;4203451;28;20063;-65
2022/05/05 02:48:04;;;;;;;0.00;0.00;;;15.90;59.90;;;;;;4182322;28;20047;-65
2022/05/05 02:50:33;;;;;;;0.00;0.00;;;15.90;60.00;;;;;;4205570;28;20047;-65
2022/05/05 02:55:55;;;;;;;0.00;0.00;;;15.80;60.00;;;;;;4204439;28;20097;-65
2022/05/05 02:58:29;;;;;;;0.00;0.00;;;15.80;60.00;;;;;;4198370;28;20056;-65
2022/05/05 03:00:55;;;;;;;0.00;0.00;;;15.80;60.00;;;;;;4210397;28;20048;-65
2022/05/05 03:03:28;;;;;;;0.10;0.10;;;15.80;60.10;;;;;;4197991;28;20486;-65
2022/05/05 03:05:52;;;;;;;0.00;0.00;;;15.80;60.10;;;;;;4190719;28;20138;-65
2022/05/05 03:08:20;;;;;;;4.47;0.75;;;15.80;60.10;;;;;;4205219;28;20131;-65
2022/05/05 03:10:44;;;;;;;0.00;0.00;;;15.80;60.10;;;;;;4186851;28;20135;-65
2022/05/05 03:13:10;;;;;;;0.00;0.00;;;15.80;60.20;;;;;;4178686;28;20055;-65
2022/05/05 03:15:36;;;;;;;0.00;0.00;;;15.80;60.20;;;;;;4208210;28;20040;-64
2022/05/05 03:18:02;;;;;;;0.00;0.00;;;15.80;60.30;;;;;;4195481;28;20055;-65
2022/05/05 03:20:29;;;;;;;0.00;0.00;;;15.80;60.30;;;;;;4198526;28;20046;-64
2022/05/05 03:22:58;;;;;;;0.90;0.75;;;15.80;60.30;;;;;;4209243;28;20063;-64
2022/05/05 03:25:35;;;;;;;0.00;0.00;;;15.80;60.30;;;;;;4189676;28;20072;-64
2022/05/05 03:28:30;;;;;;;0.00;0.00;;;15.80;60.30;;;;;;4195124;28;20053;-65
2022/05/05 03:30:57;;;;;;;0.00;0.00;;;15.70;60.30;;;;;;4207108;28;20047;-65
2022/05/05 03:33:23;;;;;;;0.00;0.00;;;15.70;60.40;;;;;;4202523;28;20063;-64
2022/05/05 03:35:48;;;;;;;0.00;0.00;;;15.70;60.50;;;;;;4201544;28;20058;-65
2022/05/05 03:38:20;;;;;;;0.00;0.00;;;15.70;60.50;;;;;;4192915;28;20044;-65
2022/05/05 03:40:46;;;;;;;0.00;0.00;;;15.70;60.50;;;;;;4192204;28;20040;-65
2022/05/05 03:43:18;;;;;;;0.00;0.00;;;15.70;60.50;;;;;;4195148;28;20070;-65
2022/05/05 03:45:43;;;;;;;0.00;0.00;;;15.70;60.60;;;;;;4204409;28;20089;-65
2022/05/05 03:48:09;;;;;;;0.00;0.00;;;15.70;60.70;;;;;;4204978;28;20071;-66
2022/05/05 03:50:36;;;;;;;0.00;0.00;;;15.70;60.80;;;;;;4197061;28;20044;-65
2022/05/05 03:53:03;;;;;;;0.00;0.00;;;15.70;60.80;;;;;;4206346;28;20485;-65
2022/05/05 03:55:30;;;;;;;0.00;0.00;;;15.70;60.90;;;;;;4175439;28;20076;-65
2022/05/05 03:57:58;;;;;;;0.00;0.00;;;15.70;60.90;;;;;;4193653;28;20044;-65
2022/05/05 04:00:25;;;;;;;0.00;0.00;;;15.60;60.90;;;;;;4182440;28;20052;-65
2022/05/05 04:05:31;;;;;;;0.00;0.00;;;15.60;60.90;;;;;;4191676;28;20131;-65
2022/05/05 04:08:02;;;;;;;0.00;0.00;;;15.70;60.90;;;;;;4183969;28;20036;-65
2022/05/05 04:10:28;;;;;;;0.00;0.00;;;15.60;60.90;;;;;;4195201;28;20045;-65
2022/05/05 04:12:55;;;;;;;0.10;0.10;;;15.60;60.90;;;;;;4200213;28;20051;-65
2022/05/05 04:15:18;;;;;;;1.55;1.08;;;15.60;60.90;;;;;;4203216;28;20603;-65
2022/05/05 04:17:43;;;;;;;0.00;0.00;;;15.60;60.90;;;;;;4206002;28;20521;-65
2022/05/05 04:20:10;;;;;;;0.10;0.10;;;15.60;60.90;;;;;;4164250;28;20047;-64
2022/05/05 04:22:37;;;;;;;0.00;0.00;;;15.60;60.90;;;;;;4180920;28;20126;-65
2022/05/05 04:25:05;;;;;;;0.03;0.03;;;15.60;60.90;;;;;;4200952;28;20131;-64
2022/05/05 04:27:33;;;;;;;0.00;0.00;;;15.60;61.00;;;;;;4206184;28;20052;-65
2022/05/05 04:30:04;;;;;;;0.00;0.00;;;15.60;61.00;;;;;;4202122;28;20048;-65
2022/05/05 04:32:34;;;;;;;0.00;0.00;;;15.60;61.10;;;;;;4200864;28;20143;-65
2022/05/05 04:35:05;;;;;;;0.00;0.00;;;15.60;61.20;;;;;;4185257;28;20505;-64
2022/05/05 04:37:34;;;;;;;0.00;0.00;;;15.60;61.30;;;;;;4190620;28;20052;-64
2022/05/05 04:40:01;;;;;;;0.00;0.00;;;15.60;61.30;;;;;;4205051;28;20093;-64
2022/05/05 04:42:27;;;;;;;0.00;0.00;;;15.60;61.30;;;;;;4203882;28;20052;-63
2022/05/05 04:44:59;;;;;;;0.00;0.00;;;15.60;61.30;;;;;;4204955;28;20463;-63
2022/05/05 04:47:31;;;;;;;0.00;0.00;;;15.50;61.20;;;;;;4204916;28;20371;-64
2022/05/05 04:49:56;;;;;;;0.00;0.00;;;15.60;61.20;;;;;;4199579;28;20059;-65
2022/05/05 04:52:24;;;;;;;0.00;0.00;;;15.60;61.20;;;;;;4195808;28;20074;-65
2022/05/05 04:54:51;;;;;;;0.00;0.00;;;15.60;61.30;;;;;;4209903;28;20531;-64
2022/05/05 04:57:20;;;;;;;0.00;0.00;;;15.60;61.50;;;;;;4206606;28;21618;-64
2022/05/05 04:59:45;;;;;;;0.00;0.00;;;15.60;61.50;;;;;;4192322;28;20118;-65
2022/05/05 05:02:15;;;;;;;0.00;0.00;;;15.60;61.60;;;;;;4193992;28;20109;-64
2022/05/05 05:04:40;;;;;;;0.00;0.00;;;15.50;61.50;;;;;;4191343;28;20051;-64
2022/05/05 05:07:09;;;;;;;0.00;0.00;;;15.50;61.60;;;;;;4185316;28;20052;-64
2022/05/05 05:09:35;;;;;;;0.28;0.28;;;15.50;61.60;;;;;;4199197;28;20055;-65
2022/05/05 05:11:59;;;;;;;0.30;0.30;;;15.50;61.60;;;;;;4206317;28;20494;-63
2022/05/05 05:14:29;;;;;;;0.00;0.00;;;15.50;61.60;;;;;;4205451;28;20134;-64
2022/05/05 05:16:59;;;;;;;0.00;0.00;;;15.50;61.70;;;;;;4185749;28;20051;-64
2022/05/05 05:19:32;;;;;;;0.03;0.03;;;15.50;61.70;;;;;;4205164;28;20565;-66
2022/05/05 05:22:05;;;;;;;0.00;0.00;;;15.50;61.70;;;;;;4197082;28;20113;-65
2022/05/05 05:24:30;;;;;;;0.00;0.00;;;15.50;61.70;;;;;;4190958;28;20486;-65
2022/05/05 05:26:57;;;;;;;0.00;0.00;;;15.50;61.70;;;;;;4193929;28;20490;-65
2022/05/05 05:29:24;;;;;;;0.20;0.20;;;15.50;61.80;;;;;;4175086;28;20052;-64
2022/05/05 05:31:52;;;;;;;0.00;0.00;;;15.50;61.80;;;;;;4194250;28;20497;-64
2022/05/05 05:34:21;;;;;;;0.00;0.00;;;15.50;61.80;;;;;;4205359;28;20070;-63
2022/05/05 05:36:49;;;;;;;0.75;0.55;;;15.50;61.90;;;;;;4177599;28;20048;-66
2022/05/05 05:39:14;;;;;;;0.00;0.00;;;15.50;61.80;;;;;;4206503;28;20040;-64
2022/05/05 05:41:40;;;;;;;0.00;0.00;;;15.50;61.80;;;;;;4198834;28;20055;-65
2022/05/05 05:44:07;;;;;;;0.25;0.25;;;15.50;61.90;;;;;;4204734;28;20082;-66
2022/05/05 05:46:34;;;;;;;0.20;0.20;;;15.50;61.90;;;;;;4203519;28;20054;-64
2022/05/05 05:48:59;;;;;;;0.00;0.00;;;15.50;61.90;;;;;;4195472;28;20514;-64
2022/05/05 05:51:34;;;;;;;0.00;0.00;;;15.50;62.00;;;;;;4198040;28;20055;-64
2022/05/05 05:54:01;;;;;;;0.00;0.00;;;15.50;62.10;;;;;;4194231;28;20047;-66
2022/05/05 05:56:28;;;;;;;0.40;0.40;;;15.50;62.60;;;;;;4206437;28;20540;-65
2022/05/05 05:58:56;;;;;;;0.00;0.00;;;15.50;63.00;;;;;;4190856;28;20044;-64
2022/05/05 06:01:19;;;;;;;0.20;0.20;;;15.50;63.10;;;;;;4189270;28;20084;-65
2022/05/05 06:03:53;;;;;;;0.00;0.00;;;15.50;63.20;;;;;;4187700;28;20051;-64
2022/05/05 06:06:17;;;;;;;1.30;1.20;;;15.60;63.30;;;;;;4191352;28;20123;-64
2022/05/05 06:08:48;;;;;;;0.00;0.00;;;15.60;63.60;;;;;;4197150;28;20687;-65
2022/05/05 06:11:16;;;;;;;2.25;0.43;;;15.60;63.80;;;;;;4185489;28;20043;-65
2022/05/05 06:13:47;;;;;;;0.00;0.00;;;15.60;63.90;;;;;;4201165;28;20097;-66
2022/05/05 06:16:13;;;;;;;1.35;1.30;;;15.60;63.80;;;;;;4206939;28;20043;-65
2022/05/05 06:18:41;;;;;;;0.65;0.65;;;15.60;63.40;;;;;;4199412;28;20056;-65
2022/05/05 06:21:09;;;;;;;0.25;0.25;;;15.60;63.10;;;;;;4175393;28;20089;-66
2022/05/05 06:23:41;;;;;;;0.30;0.30;;;15.60;63.00;;;;;;4193501;28;20040;-66
2022/05/05 06:26:07;;;;;;;0.20;0.20;;;15.60;62.90;;;;;;4218180;28;20036;-65
2022/05/05 06:28:35;;;;;;;0.00;0.00;;;15.60;62.80;;;;;;4206447;28;20059;-66
2022/05/05 06:31:04;;;;;;;0.00;0.00;;;15.60;62.80;;;;;;4203494;28;20052;-65
2022/05/05 06:33:31;;;;;;;0.00;0.00;;;15.60;62.80;;;;;;4191884;28;20452;-64
2022/05/05 06:35:55;;;;;;;0.00;0.00;;;15.60;62.80;;;;;;4192007;28;20052;-65
2022/05/05 06:38:20;;;;;;;0.25;0.25;;;15.60;62.80;;;;;;4171743;28;20067;-66
2022/05/05 06:40:46;;;;;;;3.33;2.13;;;15.60;62.80;;;;;;4189519;28;20060;-64
2022/05/05 06:43:11;;;;;;;0.10;0.10;;;15.50;62.70;;;;;;4192975;28;20117;-64
2022/05/05 06:45:33;;;;;;;0.00;0.00;;;15.60;62.80;;;;;;4209375;28;20048;-64
2022/05/05 06:47:58;;;;;;;0.77;0.77;;;15.60;62.70;;;;;;4208728;28;20047;-64
2022/05/05 06:50:22;;;;;;;0.00;0.00;;;15.60;62.70;;;;;;4208780;28;20060;-65
2022/05/05 06:52:45;;;;;;;0.10;0.10;;;15.50;62.60;;;;;;4193232;28;20491;-64
2022/05/05 06:55:09;;;;;;;0.00;0.00;;;15.60;62.60;;;;;;4193477;28;20410;-64
2022/05/05 06:57:33;;;;;;;0.17;0.10;;;15.60;62.60;;;;;;4179480;28;20499;-64
2022/05/05 06:59:58;;;;;;;0.28;0.28;;;15.60;62.50;;;;;;4197124;28;20476;-64
2022/05/05 07:02:19;;;;;;;0.00;0.00;;;15.60;62.60;;;;;;4197088;28;20063;-64
2022/05/05 07:07:24;;;;;;;1.65;1.13;;;15.50;62.50;;;;;;4197452;28;20131;-63
2022/05/05 07:12:30;;;;;;;0.00;0.00;;;15.60;62.50;;;;;;4203072;28;20058;-63
2022/05/05 07:14:54;;;;;;;0.00;0.00;;;15.60;62.50;;;;;;4193541;28;20044;-64
2022/05/05 07:17:19;;;;;;;0.00;0.00;;;15.60;62.50;;;;;;4198278;28;20052;-64
2022/05/05 07:19:42;;;;;;;0.10;0.10;;;15.60;62.50;;;;;;4202708;28;20135;-64
2022/05/05 07:22:05;;;;;;;0.22;0.22;;;15.60;62.50;;;;;;4196001;28;20044;-64
2022/05/05 07:24:32;;;;;;;0.00;0.00;;;15.60;62.50;;;;;;4213653;28;20554;-64
2022/05/05 07:26:55;;;;;;;0.00;0.00;;;15.60;62.50;;;;;;4202807;28;20051;-64
2022/05/05 07:29:18;;;;;;;0.22;0.17;;;15.60;62.50;;;;;;4196059;28;20040;-64
2022/05/05 07:31:41;;;;;;;0.00;0.00;;;15.60;62.60;;;;;;4200180;28;20508;-65
2022/05/05 07:34:06;;;;;;;0.00;0.00;;;15.60;62.60;;;;;;4200467;28;20063;-64
2022/05/05 07:36:30;;;;;;;0.20;0.20;;;15.60;63.50;;;;;;4201748;28;20051;-64
2022/05/05 07:38:52;;;;;;;0.00;0.00;;;15.60;62.70;;;;;;4193600;28;20748;-64
2022/05/05 07:41:19;;;;;;;0.55;0.35;;;15.60;62.70;;;;;;4201707;28;20049;-64
2022/05/05 07:43:43;;;;;;;0.00;0.00;;;15.60;62.60;;;;;;4215626;28;20052;-64
2022/05/05 07:46:08;;;;;;;0.80;0.80;;;15.60;62.50;;;;;;4203614;28;20054;-64
2022/05/05 07:48:31;;;;;;;0.00;0.00;;;15.70;62.60;;;;;;4192087;28;20056;-64
2022/05/05 07:50:56;;;;;;;0.00;0.00;;;15.70;62.60;;;;;;4183176;28;20052;-64
2022/05/05 07:53:19;;;;;;;0.00;0.00;;;15.70;62.60;;;;;;4190229;28;20462;-67
2022/05/05 07:55:42;;;;;;;0.00;0.00;;;15.70;62.60;;;;;;4200747;28;20048;-64
2022/05/05 07:58:05;;;;;;;0.20;0.20;;;15.70;62.50;;;;;;4196048;28;20050;-64
2022/05/05 08:00:28;;;;;;;0.00;0.00;;;15.70;62.50;;;;;;4193737;28;20063;-63
2022/05/05 08:02:50;;;;;;;0.28;0.28;;;15.70;62.50;;;;;;4199549;28;20131;-64
2022/05/05 08:05:13;;;;;;;0.00;0.00;;;15.70;62.40;;;;;;4201355;28;20127;-63
2022/05/05 08:07:40;;;;;;;0.05;0.05;;;15.70;62.40;;;;;;4194372;28;20053;-64
2022/05/05 08:10:02;;;;;;;1.02;0.98;;;15.70;62.40;;;;;;4205928;28;20139;-64
2022/05/05 08:12:25;;;;;;;0.00;0.00;;;15.70;62.40;;;;;;4191676;28;20506;-64
2022/05/05 08:14:48;;;;;;;0.00;0.00;;;15.70;62.30;;;;;;4190898;28;20052;-64
2022/05/05 08:17:13;;;;;;;24.85;1.27;;;15.80;62.40;;;;;;4199948;28;20059;-64
2022/05/05 08:19:36;;;;;;;0.00;0.00;;;15.80;62.40;;;;;;4195064;28;20102;-64
2022/05/05 08:21:58;;;;;;;0.20;0.20;;;15.80;62.40;;;;;;4202185;28;20055;-64
2022/05/05 08:29:54;;;;;;;0.00;0.00;;;15.80;62.40;;;;;;4139650;28;20054;-64
2022/05/05 08:32:17;;;;;;;0.65;0.65;;;15.80;62.30;;;;;;4211701;27;20061;-64
2022/05/05 08:34:39;;;;;;;0.00;0.00;;;15.90;62.20;;;;;;4200665;28;20120;-62
2022/05/05 08:37:02;;;;;;;0.00;0.00;;;15.90;62.20;;;;;;4199056;28;20479;-63
2022/05/05 08:39:26;;;;;;;0.00;0.00;;;15.90;62.20;;;;;;4200700;28;21027;-64
2022/05/05 08:41:48;;;;;;;0.00;0.00;;;15.90;63.00;;;;;;4206177;28;20052;-63
2022/05/05 08:44:10;;;;;;;0.00;0.00;;;16.00;61.90;;;;;;4197675;28;20059;-64
2022/05/05 08:46:35;;;;;;;0.00;0.00;;;16.00;61.80;;;;;;4195921;28;20118;-63
2022/05/05 08:49:02;;;;;;;0.00;0.00;;;16.00;61.60;;;;;;4218553;28;20049;-64
2022/05/05 08:51:28;;;;;;;0.10;0.10;;;16.00;61.30;;;;;;4188837;28;20041;-64
2022/05/05 08:53:55;;;;;;;0.00;0.00;;;16.10;61.20;;;;;;4194269;28;20049;-63
2022/05/05 08:56:18;;;;;;;0.00;0.00;;;16.00;60.90;;;;;;4192410;28;20760;-64
2022/05/05 08:58:41;;;;;;;0.65;0.57;;;16.10;60.80;;;;;;4194460;28;20110;-64
2022/05/05 09:01:03;;;;;;;0.00;0.00;;;16.10;60.60;;;;;;4192384;28;20049;-64
2022/05/05 09:03:26;;;;;;;0.00;0.00;;;16.10;60.40;;;;;;4194686;28;20080;-64
2022/05/05 09:05:52;;;;;;;0.30;0.30;;;16.20;60.20;;;;;;4203085;28;20542;-64
2022/05/05 09:08:27;;;;;;;0.00;0.00;;;16.20;60.00;;;;;;4204312;28;20097;-64
2022/05/05 09:10:51;;;;;;;0.00;0.00;;;16.20;59.90;;;;;;4201015;28;20080;-64
2022/05/05 09:13:22;;;;;;;0.10;0.10;;;16.30;60.70;;;;;;4193950;28;20052;-63
2022/05/05 09:15:44;;;;;;;0.00;0.00;;;16.30;59.60;;;;;;4193816;28;20204;-63
2022/05/05 09:18:17;;;;;;;54.15;1.55;;;16.40;59.50;;;;;;4199858;28;20125;-63
2022/05/05 09:20:40;;;;;;;0.25;0.25;;;16.40;60.10;;;;;;4210115;28;20458;-63
2022/05/05 09:23:08;;;;;;;0.03;0.03;;;16.40;59.30;;;;;;4204115;28;20081;-64
2022/05/05 09:25:44;;;;;;;0.30;0.30;;;16.50;59.40;;;;;;4191367;28;20080;-64
2022/05/05 09:28:18;;;;;;;0.00;0.00;;;16.50;59.30;;;;;;4197966;28;20048;-66
2022/05/05 09:30:46;;;;;;;0.25;0.25;;;16.60;59.30;;;;;;4190212;28;20048;-64
2022/05/05 09:33:10;;;;;;;0.63;0.50;;;16.60;59.30;;;;;;4192493;28;20053;-65
2022/05/05 09:35:33;;;;;;;0.00;0.00;;;16.60;59.30;;;;;;4193379;28;20475;-65
2022/05/05 09:37:56;;;;;;;0.55;0.55;;;16.70;59.30;;;;;;4198143;28;20105;-65
2022/05/05 09:40:20;;;;;;;0.00;0.00;;;16.80;59.20;;;;;;4212402;28;20487;-65
2022/05/05 09:42:44;;;;;;;0.00;0.00;;;16.70;59.10;;;;;;4192934;28;20145;-65
2022/05/05 09:45:19;;;;;;;0.00;0.00;;;16.80;59.00;;;;;;4192781;28;20044;-65
2022/05/05 09:47:41;;;;;;;0.00;0.00;;;16.80;58.90;;;;;;4202156;28;20083;-66
2022/05/05 09:50:05;;;;;;;0.00;0.00;;;16.90;58.80;;;;;;4202993;28;20044;-65
2022/05/05 09:57:52;;;;;;;0.47;0.47;;;17.00;58.50;;;;;;4199794;28;20098;-66
2022/05/05 10:00:44;;;;;;;0.00;0.00;;;17.10;58.40;;;;;;4197368;28;20109;-66
2022/05/05 10:05:49;;;;;;;0.00;0.00;;;17.20;58.20;;;;;;4199820;28;20041;-66
2022/05/05 10:08:16;;;;;;;0.00;0.00;;;17.20;58.10;;;;;;4194690;28;20055;-65
2022/05/05 10:10:39;;;;;;;0.00;0.00;;;17.20;58.00;;;;;;4197174;28;20402;-65
2022/05/05 10:13:01;;;;;;;0.08;0.08;;;17.30;57.90;;;;;;4191438;28;20463;-65
2022/05/05 10:15:26;;;;;;;0.03;0.03;;;17.30;57.90;;;;;;4187907;28;20063;-65
2022/05/05 10:18:02;;;;;;;1.65;0.60;;;17.30;57.70;;;;;;4201322;28;20051;-63
2022/05/05 10:20:25;;;;;;;0.88;0.88;;;17.40;57.70;;;;;;4199028;28;20044;-65
2022/05/05 10:22:56;;;;;;;0.00;0.00;;;17.40;57.60;;;;;;4196049;28;20044;-64
2022/05/05 10:25:23;;;;;;;0.00;0.00;;;17.40;57.60;;;;;;4191401;28;20048;-64
2022/05/05 10:27:45;;;;;;;0.52;0.52;;;17.50;57.60;;;;;;4195336;28;20101;-66
2022/05/05 10:30:14;;;;;;;0.00;0.00;;;17.50;57.50;;;;;;4195205;28;20049;-66
2022/05/05 10:32:37;;;;;;;0.00;0.00;;;17.50;57.40;;;;;;4190274;28;20099;-66
2022/05/05 10:35:08;;;;;;;0.00;0.00;;;17.60;57.30;;;;;;4200739;28;20043;-67
2022/05/05 10:37:36;;;;;;;0.10;0.10;;;17.60;57.10;;;;;;4194136;28;20159;-67
2022/05/05 10:40:03;;;;;;;0.00;0.00;;;17.60;57.00;;;;;;4200395;28;20045;-66
2022/05/05 10:42:39;;;;;;;0.50;0.50;;;17.70;57.00;;;;;;4195467;28;20480;-66
2022/05/05 10:45:16;;;;;;;0.08;0.08;;;17.70;56.80;;;;;;4217183;28;20134;-66
2022/05/05 10:48:15;;;;;;;2.58;1.35;;;17.70;56.70;;;;;;4197288;28;20072;-66
2022/05/05 10:50:43;;;;;;;0.13;0.10;;;17.70;56.60;;;;;;4197726;28;20067;-66
2022/05/05 10:53:06;;;;;;;0.00;0.00;;;17.70;56.50;;;;;;4194440;28;20049;-66
2022/05/05 10:55:33;;;;;;;0.00;0.00;;;17.80;56.60;;;;;;4200507;28;20048;-66
2022/05/05 10:58:48;;;;;;;0.00;0.00;;;17.80;56.50;;;;;;4193837;28;20089;-65
2022/05/05 11:01:11;;;;;;;0.10;0.10;;;17.80;56.50;;;;;;4197720;28;20612;-65
2022/05/05 11:03:33;;;;;;;0.28;0.28;;;17.80;56.40;;;;;;4189899;28;20052;-65
2022/05/05 11:06:16;;;;;;;0.00;0.00;;;17.80;56.30;;;;;;4194501;28;20447;-65
2022/05/05 11:08:38;;;;;;;0.22;0.22;;;17.90;56.40;;;;;;4202430;28;20051;-65
2022/05/05 11:13:41;;;;;;;0.40;0.40;;;17.90;56.20;;;;;;4191623;28;20074;-65
2022/05/05 11:21:50;;;;;;;0.00;0.00;;;18.00;56.80;;;;;;4171522;28;20040;-66
2022/05/05 11:24:12;;;;;;;0.00;0.00;;;18.00;56.00;;;;;;4197770;28;20057;-65
2022/05/05 11:26:34;;;;;;;0.00;0.00;;;18.00;56.00;;;;;;4205171;28;20138;-65
2022/05/05 11:28:58;;;;;;;0.00;0.00;;;18.10;56.00;;;;;;4201658;28;20047;-66
2022/05/05 11:31:21;;;;;;;0.00;0.00;;;18.10;56.00;;;;;;4192246;28;20044;-64
2022/05/05 11:33:49;;;;;;;8.95;0.90;;;18.10;55.90;;;;;;4192876;28;20048;-65
2022/05/05 11:36:10;;;;;;;0.00;0.00;;;18.10;55.90;;;;;;4195497;28;20107;-65
2022/05/05 11:38:34;;;;;;;0.10;0.10;;;18.20;55.90;;;;;;4201383;28;20087;-64
2022/05/05 11:41:03;;;;;;;0.00;0.00;;;18.20;55.80;;;;;;4204458;28;20072;-65
2022/05/05 11:46:05;;;;;;;0.20;0.20;;;18.20;55.80;;;;;;4192395;28;20059;-64
2022/05/05 11:48:27;;;;;;;0.00;0.00;;;18.30;55.70;;;;;;4192242;28;20474;-64
2022/05/05 11:51:06;;;;;;;0.00;0.00;;;18.30;55.80;;;;;;4192195;28;20044;-64
2022/05/05 11:53:30;;;;;;;0.00;0.00;;;18.30;55.70;;;;;;4198553;28;20059;-64
2022/05/05 11:55:55;;;;;;;0.00;0.00;;;18.30;55.80;;;;;;4192305;28;20483;-65
2022/05/05 12:01:36;;;;;;;0.00;0.00;;;18.40;55.70;;;;;;4204575;28;20475;-62
2022/05/05 12:04:01;;;;;;;0.00;0.00;;;18.40;55.70;;;;;;4154566;28;20138;-64
2022/05/05 12:06:25;;;;;;;0.00;0.00;;;18.40;55.60;;;;;;4191946;28;20050;-63
2022/05/05 12:08:47;;;;;;;0.00;0.00;;;18.40;55.60;;;;;;4205053;28;20070;-64
2022/05/05 12:11:11;;;;;;;0.00;0.00;;;18.50;55.60;;;;;;4197332;28;20491;-63
2022/05/05 12:13:33;;;;;;;0.00;0.00;;;18.50;55.60;;;;;;4202984;28;20154;-63
2022/05/05 12:15:56;;;;;;;0.10;0.10;;;18.50;55.60;;;;;;4199930;28;20076;-64
2022/05/05 12:18:18;;;;;;;0.00;0.00;;;18.50;55.60;;;;;;4194691;28;20044;-62
2022/05/05 12:20:40;;;;;;;0.10;0.10;;;18.50;55.60;;;;;;4206935;28;20465;-63
2022/05/05 12:23:04;;;;;;;0.20;0.20;;;18.60;55.70;;;;;;4200100;28;20056;-64
2022/05/05 12:25:28;;;;;;;0.10;0.10;;;18.60;55.70;;;;;;4202021;28;20044;-64
2022/05/05 12:28:08;;;;;;;0.00;0.00;;;18.50;55.60;;;;;;4205986;28;20040;-65
2022/05/05 12:30:31;;;;;;;0.00;0.00;;;18.60;55.60;;;;;;4193537;28;20048;-63
2022/05/05 12:32:54;;;;;;;0.55;0.55;;;18.70;55.70;;;;;;4197958;28;20097;-64
2022/05/05 12:35:17;;;;;;;0.13;0.13;;;18.70;55.60;;;;;;4208136;28;20043;-63
2022/05/05 12:37:39;;;;;;;0.43;0.43;;;18.70;55.70;;;;;;4202515;28;20078;-63
2022/05/05 12:40:03;;;;;;;0.10;0.10;;;18.70;55.60;;;;;;4201012;28;20076;-63
2022/05/05 12:42:38;;;;;;;0.03;0.03;;;18.70;55.50;;;;;;4195430;28;20141;-63
2022/05/05 12:45:02;;;;;;;0.45;0.45;;;18.80;55.60;;;;;;4198678;28;20506;-63
2022/05/05 12:47:26;;;;;;;0.65;0.65;;;18.80;55.50;;;;;;4199607;28;20055;-63
2022/05/05 12:49:48;;;;;;;0.10;0.10;;;18.80;55.50;;;;;;4193005;28;20055;-62
2022/05/05 12:59:36;;;;;;;0.30;0.15;;;18.80;55.50;;;;;;4202856;28;20131;-65
2022/05/05 13:00:16;;;;;;;0.10;0.10;;;18.90;55.30;;;;;;4191278;28;20049;-64
2022/05/05 13:02:58;;;;;;;3.10;0.63;;;18.90;55.30;;;;;;4191607;28;20052;-66
2022/05/05 13:05:20;;;;;;;0.08;0.08;;;19.00;55.40;;;;;;4209889;28;20046;-64
2022/05/05 13:07:43;;;;;;;0.43;0.43;;;19.00;55.40;;;;;;4209721;28;20062;-63
2022/05/05 13:10:05;;;;;;;0.10;0.10;;;19.00;55.40;;;;;;4209524;28;20552;-63
2022/05/05 13:12:27;;;;;;;0.40;0.40;;;19.00;55.30;;;;;;4210173;28;20142;-63
2022/05/05 13:14:49;;;;;;;1.00;0.93;;;19.00;55.30;;;;;;4208565;28;20051;-64
2022/05/05 13:17:13;;;;;;;0.35;0.35;;;19.00;55.40;;;;;;4209941;28;20052;-63
2022/05/05 13:19:35;;;;;;;0.00;0.00;;;19.00;55.40;;;;;;4209895;28;20134;-64
2022/05/05 13:21:59;;;;;;;0.00;0.00;;;19.00;55.40;;;;;;4209610;28;20048;-63
2022/05/05 13:24:21;;;;;;;0.20;0.20;;;19.00;55.40;;;;;;4209578;28;20059;-63
2022/05/05 13:26:46;;;;;;;0.00;0.00;;;19.10;55.60;;;;;;4209665;28;20055;-63
2022/05/05 13:29:09;;;;;;;0.00;0.00;;;19.10;55.60;;;;;;4209424;28;20127;-63
2022/05/05 13:31:30;;;;;;;0.00;0.00;;;19.10;55.60;;;;;;4209688;28;20536;-64
2022/05/05 13:33:54;;;;;;;0.10;0.10;;;19.10;55.60;;;;;;4209390;28;20055;-64
2022/05/05 13:36:16;;;;;;;0.75;0.75;;;19.10;55.60;;;;;;4209203;28;20048;-64
2022/05/05 13:38:38;;;;;;;0.08;0.08;;;19.10;55.60;;;;;;4209453;28;20058;-64